Time;durP1;ratioP1;P1;durP2;ratioP2;P2;SDS_P1;SDS_P2;PMS_P1;PMS_P2;Temp;Humidity;BMP_temperature;BMP_pressure;BME280_temperature;BME280_humidity;BME280_pressure;Samples;Min_cycle;Max_cycle;Signal;HPM_P1;HPM_P2
2024/01/25 00:03:06;;;;;;;17.43;4.00;;;;;;;;;;10522330;28;20024;-81
2024/01/25 00:08:07;;;;;;;15.23;3.73;;;;;;;;;;10529409;28;20040;-80
2024/01/25 00:13:08;;;;;;;14.83;3.57;;;;;;;;;;10516257;28;20052;-80
2024/01/25 00:18:09;;;;;;;10.77;3.57;;;;;;;;;;10515079;28;20032;-79
2024/01/25 00:23:10;;;;;;;14.83;4.67;;;;;;;;;;10529567;28;20080;-78
2024/01/25 00:28:12;;;;;;;7.20;2.90;;;;;;;;;;10527774;28;20081;-77
2024/01/25 00:33:13;;;;;;;12.67;2.70;;;;;;;;;;10525921;28;20036;-78
2024/01/25 00:38:14;;;;;;;5.87;2.17;;;;;;;;;;10525183;28;20116;-81
2024/01/25 00:43:15;;;;;;;12.70;2.77;;;;;;;;;;10516063;28;20032;-78
2024/01/25 00:48:17;;;;;;;9.50;2.87;;;;;;;;;;10510925;28;20036;-78
2024/01/25 00:53:18;;;;;;;7.37;2.43;;;;;;;;;;10495305;28;20042;-79
2024/01/25 00:58:20;;;;;;;5.67;1.90;;;;;;;;;;10527014;28;20455;-77
2024/01/25 01:03:21;;;;;;;8.70;2.57;;;;;;;;;;10526350;28;20498;-80
2024/01/25 01:08:22;;;;;;;6.80;2.50;;;;;;;;;;10526407;28;20044;-78
2024/01/25 01:13:23;;;;;;;11.90;2.77;;;;;;;;;;10524379;28;20060;-78
2024/01/25 01:18:24;;;;;;;8.97;2.40;;;;;;;;;;10525876;28;20024;-78
2024/01/25 01:23:25;;;;;;;9.00;2.73;;;;;;;;;;10526683;28;20028;-78
2024/01/25 01:28:26;;;;;;;9.33;2.13;;;;;;;;;;10525456;28;20043;-79
2024/01/25 01:33:27;;;;;;;8.90;2.70;;;;;;;;;;10492514;28;20039;-84
2024/01/25 01:38:28;;;;;;;9.23;2.40;;;;;;;;;;10510417;28;20088;-79
2024/01/25 01:43:29;;;;;;;11.53;2.20;;;;;;;;;;10511873;28;20039;-80
2024/01/25 01:48:30;;;;;;;8.97;1.87;;;;;;;;;;10524081;28;20047;-80
2024/01/25 01:53:33;;;;;;;14.53;3.37;;;;;;;;;;10524648;28;20035;-78
2024/01/25 01:58:34;;;;;;;11.80;2.63;;;;;;;;;;10506868;28;20044;-82
2024/01/25 02:03:35;;;;;;;8.87;3.03;;;;;;;;;;10520817;28;20032;-82
2024/01/25 02:08:36;;;;;;;13.20;2.80;;;;;;;;;;10519296;28;20764;-77
2024/01/25 02:13:37;;;;;;;13.53;3.17;;;;;;;;;;10522721;28;20060;-77
2024/01/25 02:18:45;;;;;;;11.37;3.00;;;;;;;;;;10501318;28;20032;-81
2024/01/25 02:23:46;;;;;;;16.90;3.13;;;;;;;;;;10525570;28;20077;-82
2024/01/25 02:28:54;;;;;;;17.03;3.33;;;;;;;;;;10523719;28;20032;-79
2024/01/25 02:33:55;;;;;;;9.03;2.13;;;;;;;;;;10505464;28;20036;-78
2024/01/25 02:38:56;;;;;;;13.80;2.60;;;;;;;;;;10523863;28;20382;-78
2024/01/25 02:43:57;;;;;;;13.67;2.90;;;;;;;;;;10523678;28;20024;-78
2024/01/25 02:48:58;;;;;;;8.43;1.97;;;;;;;;;;10513470;28;20076;-78
2024/01/25 02:53:59;;;;;;;10.27;2.53;;;;;;;;;;10524849;28;20684;-78
2024/01/25 02:59:00;;;;;;;11.77;2.50;;;;;;;;;;10524113;28;20028;-78
2024/01/25 03:04:08;;;;;;;10.70;2.43;;;;;;;;;;10506146;28;20040;-79
2024/01/25 03:09:16;;;;;;;12.67;3.10;;;;;;;;;;10531720;28;20032;-79
2024/01/25 03:14:17;;;;;;;10.17;2.60;;;;;;;;;;10530113;28;20060;-78
2024/01/25 03:19:18;;;;;;;11.23;3.10;;;;;;;;;;10508702;28;20085;-81
2024/01/25 03:24:19;;;;;;;8.27;2.87;;;;;;;;;;10530288;28;20096;-82
2024/01/25 03:29:20;;;;;;;11.93;2.80;;;;;;;;;;10530434;28;20552;-78
2024/01/25 03:34:21;;;;;;;14.83;2.90;;;;;;;;;;10528848;28;20034;-78
2024/01/25 03:39:22;;;;;;;12.50;2.60;;;;;;;;;;10531462;28;20358;-79
2024/01/25 03:44:24;;;;;;;12.50;2.60;;;;;;;;;;10510687;28;20036;-77
2024/01/25 03:49:25;;;;;;;11.83;2.37;;;;;;;;;;10528897;28;20384;-83
2024/01/25 03:54:26;;;;;;;13.63;2.90;;;;;;;;;;10529039;28;20038;-80
2024/01/25 03:59:27;;;;;;;11.20;3.33;;;;;;;;;;10528269;28;20028;-78
2024/01/25 04:04:28;;;;;;;15.53;3.50;;;;;;;;;;10527920;28;20068;-81
2024/01/25 04:09:29;;;;;;;12.47;2.70;;;;;;;;;;10523456;28;20805;-78
2024/01/25 04:14:30;;;;;;;9.87;3.40;;;;;;;;;;10513505;28;20043;-78
2024/01/25 04:19:31;;;;;;;10.97;2.43;;;;;;;;;;10520489;28;20043;-78
2024/01/25 04:24:32;;;;;;;7.73;2.57;;;;;;;;;;10515802;28;20036;-78
2024/01/25 04:29:33;;;;;;;10.77;2.50;;;;;;;;;;10513870;28;20044;-79
2024/01/25 04:34:34;;;;;;;15.73;3.27;;;;;;;;;;10513515;28;20032;-80
2024/01/25 04:39:35;;;;;;;10.47;2.70;;;;;;;;;;10524589;28;20043;-79
2024/01/25 04:44:36;;;;;;;17.57;4.03;;;;;;;;;;10523716;28;20032;-82
2024/01/25 04:49:37;;;;;;;18.47;7.90;;;;;;;;;;10527015;28;20040;-85
2024/01/25 04:54:38;;;;;;;14.50;3.37;;;;;;;;;;10526387;28;20028;-79
2024/01/25 04:59:39;;;;;;;13.17;3.03;;;;;;;;;;10501822;28;20100;-79
2024/01/25 05:04:41;;;;;;;9.83;2.53;;;;;;;;;;10503933;28;20403;-80
2024/01/25 05:09:42;;;;;;;9.70;4.13;;;;;;;;;;10512703;28;20125;-80
2024/01/25 05:14:43;;;;;;;16.00;5.07;;;;;;;;;;10521665;28;20064;-84
2024/01/25 05:19:44;;;;;;;11.00;2.90;;;;;;;;;;10510895;28;20418;-86
2024/01/25 05:24:46;;;;;;;16.47;2.90;;;;;;;;;;10500222;28;20070;-80
2024/01/25 05:29:47;;;;;;;15.07;4.03;;;;;;;;;;10515070;28;20039;-79
2024/01/25 05:34:48;;;;;;;17.47;5.43;;;;;;;;;;10526150;28;20031;-79
2024/01/25 05:39:49;;;;;;;17.27;5.60;;;;;;;;;;10526197;28;20047;-79
2024/01/25 05:44:51;;;;;;;16.93;4.40;;;;;;;;;;10526468;28;20405;-79
2024/01/25 05:49:52;;;;;;;18.03;4.23;;;;;;;;;;10492073;28;20131;-79
2024/01/25 05:54:53;;;;;;;14.57;3.83;;;;;;;;;;10511462;28;20032;-79
2024/01/25 05:59:54;;;;;;;15.87;4.70;;;;;;;;;;10526018;28;20039;-80
2024/01/25 06:04:58;;;;;;;17.13;4.70;;;;;;;;;;10504318;28;20025;-80
2024/01/25 06:09:59;;;;;;;10.97;3.17;;;;;;;;;;10514156;28;20056;-80
2024/01/25 06:15:00;;;;;;;11.60;3.43;;;;;;;;;;10511619;28;20020;-80
2024/01/25 06:20:01;;;;;;;15.60;6.03;;;;;;;;;;10512031;28;20115;-82
2024/01/25 06:25:03;;;;;;;13.10;3.63;;;;;;;;;;10518147;28;20028;-81
2024/01/25 06:30:05;;;;;;;18.77;5.73;;;;;;;;;;10492112;28;20035;-82
2024/01/25 06:35:06;;;;;;;12.90;3.67;;;;;;;;;;10530075;28;20028;-83
2024/01/25 06:40:08;;;;;;;13.83;3.60;;;;;;;;;;10533396;28;20024;-79
2024/01/25 06:45:09;;;;;;;13.13;4.20;;;;;;;;;;10532526;28;20028;-81
2024/01/25 06:50:10;;;;;;;15.90;4.87;;;;;;;;;;10518738;28;20399;-79
2024/01/25 06:55:11;;;;;;;16.60;4.60;;;;;;;;;;10518585;28;20020;-82
2024/01/25 07:00:15;;;;;;;14.00;3.93;;;;;;;;;;10505141;28;20099;-83
2024/01/25 07:05:16;;;;;;;11.80;3.27;;;;;;;;;;10525292;28;20345;-80
2024/01/25 07:10:17;;;;;;;10.27;3.53;;;;;;;;;;10530976;28;20055;-80
2024/01/25 07:15:18;;;;;;;11.77;2.53;;;;;;;;;;10532036;28;20028;-80
2024/01/25 07:20:19;;;;;;;11.47;2.83;;;;;;;;;;10517585;28;20080;-80
2024/01/25 07:25:20;;;;;;;11.33;3.23;;;;;;;;;;10531709;28;20028;-80
2024/01/25 07:30:21;;;;;;;10.33;3.30;;;;;;;;;;10517705;28;20036;-81
2024/01/25 07:35:23;;;;;;;12.87;4.00;;;;;;;;;;10531498;28;20044;-79
2024/01/25 07:40:24;;;;;;;13.40;3.70;;;;;;;;;;10503885;28;20036;-80
2024/01/25 07:45:25;;;;;;;12.87;3.77;;;;;;;;;;10517306;28;20032;-79
2024/01/25 07:50:26;;;;;;;16.87;4.37;;;;;;;;;;10530517;28;20063;-80
2024/01/25 07:55:29;;;;;;;12.57;4.20;;;;;;;;;;10530023;28;20058;-79
2024/01/25 08:00:30;;;;;;;15.57;5.77;;;;;;;;;;10524421;28;20099;-83
2024/01/25 08:05:37;;;;;;;16.47;4.97;;;;;;;;;;10511031;28;20050;-80
2024/01/25 08:10:38;;;;;;;18.67;5.87;;;;;;;;;;10528668;28;20749;-80
2024/01/25 08:15:52;;;;;;;21.97;7.00;;;;;;;;;;10529399;28;20032;-80
2024/01/25 08:20:53;;;;;;;24.10;6.20;;;;;;;;;;10503009;28;20085;-81
2024/01/25 08:26:01;;;;;;;21.30;5.20;;;;;;;;;;10529105;28;20028;-81
2024/01/25 08:31:02;;;;;;;16.43;5.70;;;;;;;;;;10524993;28;20036;-80
2024/01/25 08:36:11;;;;;;;23.83;8.43;;;;;;;;;;10505420;28;20308;-80
2024/01/25 08:41:14;;;;;;;24.20;6.90;;;;;;;;;;10529084;28;20036;-81
2024/01/25 08:46:15;;;;;;;14.83;4.37;;;;;;;;;;10520747;28;20030;-81
2024/01/25 08:51:16;;;;;;;21.93;4.50;;;;;;;;;;10511332;28;20684;-84
2024/01/25 08:56:18;;;;;;;17.87;3.80;;;;;;;;;;10527326;28;20030;-81
2024/01/25 09:01:19;;;;;;;16.20;4.00;;;;;;;;;;10514768;28;20738;-80
2024/01/25 09:06:20;;;;;;;19.23;5.63;;;;;;;;;;10514528;28;20108;-83
2024/01/25 09:11:21;;;;;;;15.73;4.10;;;;;;;;;;10510250;28;20090;-82
2024/01/25 09:16:22;;;;;;;21.87;4.63;;;;;;;;;;10499221;28;20103;-81
2024/01/25 09:21:23;;;;;;;18.50;5.87;;;;;;;;;;10516543;28;20668;-83
2024/01/25 09:26:24;;;;;;;17.17;5.37;;;;;;;;;;10526998;28;20051;-80
2024/01/25 09:31:25;;;;;;;14.57;5.00;;;;;;;;;;10518667;28;20036;-83
2024/01/25 09:36:26;;;;;;;22.97;5.90;;;;;;;;;;10519900;28;20035;-79
2024/01/25 09:41:27;;;;;;;17.80;5.00;;;;;;;;;;10526303;28;20671;-79
2024/01/25 09:46:29;;;;;;;20.70;5.93;;;;;;;;;;10524934;28;20571;-85
2024/01/25 09:51:35;;;;;;;19.00;5.33;;;;;;;;;;10494876;28;20063;-79
2024/01/25 09:56:36;;;;;;;20.17;6.37;;;;;;;;;;10526795;28;20508;-79
2024/01/25 10:01:38;;;;;;;21.87;6.87;;;;;;;;;;10523392;28;20032;-79
2024/01/25 10:06:38;;;;;;;19.53;5.80;;;;;;;;;;10501086;28;20047;-79
2024/01/25 10:11:39;;;;;;;18.13;5.63;;;;;;;;;;10510055;28;20056;-79
2024/01/25 10:16:55;;;;;;;24.23;6.70;;;;;;;;;;10526833;28;20040;-83
2024/01/25 10:21:57;;;;;;;17.30;5.27;;;;;;;;;;10525537;28;20040;-78
2024/01/25 10:27:04;;;;;;;17.60;5.43;;;;;;;;;;10525113;28;20443;-79
2024/01/25 10:32:06;;;;;;;22.63;4.80;;;;;;;;;;10525129;28;20047;-79
2024/01/25 10:37:08;;;;;;;18.57;4.37;;;;;;;;;;10525422;28;20758;-83
2024/01/25 10:42:09;;;;;;;15.73;4.97;;;;;;;;;;10484923;28;20414;-82
2024/01/25 10:47:10;;;;;;;15.43;3.97;;;;;;;;;;10525217;28;20028;-79
2024/01/25 10:52:11;;;;;;;17.17;5.03;;;;;;;;;;10525942;28;20028;-81
2024/01/25 10:57:12;;;;;;;15.40;4.73;;;;;;;;;;10524683;28;20533;-81
2024/01/25 11:02:13;;;;;;;17.90;3.43;;;;;;;;;;10525038;28;20028;-80
2024/01/25 11:07:14;;;;;;;13.53;3.63;;;;;;;;;;10524123;28;20603;-81
2024/01/25 11:12:18;;;;;;;17.40;4.20;;;;;;;;;;10511413;28;20063;-80
2024/01/25 11:17:20;;;;;;;18.67;5.57;;;;;;;;;;10520659;28;20028;-80
2024/01/25 11:22:21;;;;;;;14.57;3.60;;;;;;;;;;10530543;28;20022;-80
2024/01/25 11:27:22;;;;;;;15.03;3.90;;;;;;;;;;10531741;28;20043;-80
2024/01/25 11:32:23;;;;;;;18.90;3.83;;;;;;;;;;10515671;28;20062;-80
2024/01/25 11:37:24;;;;;;;23.77;4.67;;;;;;;;;;10519738;28;20024;-80
2024/01/25 11:42:25;;;;;;;16.70;3.53;;;;;;;;;;10530650;28;20450;-79
2024/01/25 11:47:26;;;;;;;18.23;4.40;;;;;;;;;;10531624;28;20051;-83
2024/01/25 11:52:28;;;;;;;18.20;3.93;;;;;;;;;;10517921;28;20036;-79
2024/01/25 11:57:30;;;;;;;17.87;5.20;;;;;;;;;;10519451;28;20039;-80
2024/01/25 12:02:31;;;;;;;17.70;4.47;;;;;;;;;;10510767;28;20035;-80
2024/01/25 12:07:32;;;;;;;20.73;6.70;;;;;;;;;;10490058;28;20032;-80
2024/01/25 12:12:35;;;;;;;15.00;5.53;;;;;;;;;;10516226;28;20094;-80
2024/01/25 12:17:38;;;;;;;17.43;5.07;;;;;;;;;;10526685;28;20058;-83
2024/01/25 12:22:39;;;;;;;16.33;5.00;;;;;;;;;;10528293;28;20024;-81
2024/01/25 12:27:41;;;;;;;23.27;6.43;;;;;;;;;;10529399;28;20084;-80
2024/01/25 12:32:42;;;;;;;17.27;4.77;;;;;;;;;;10515329;28;20071;-80
2024/01/25 12:37:43;;;;;;;14.57;4.23;;;;;;;;;;10501090;28;20053;-82
2024/01/25 12:42:44;;;;;;;19.17;5.27;;;;;;;;;;10524638;28;20127;-83
2024/01/25 12:47:45;;;;;;;15.60;5.00;;;;;;;;;;10515779;28;20106;-81
2024/01/25 12:52:46;;;;;;;22.47;6.50;;;;;;;;;;10492288;28;20040;-81
2024/01/25 12:57:47;;;;;;;18.63;4.90;;;;;;;;;;10511912;28;20031;-81
2024/01/25 13:02:48;;;;;;;18.87;4.83;;;;;;;;;;10529026;28;20028;-82
2024/01/25 13:07:49;;;;;;;17.60;5.33;;;;;;;;;;10527914;28;20030;-82
2024/01/25 13:12:50;;;;;;;17.23;5.63;;;;;;;;;;10526856;28;20055;-85
2024/01/25 13:17:51;;;;;;;25.30;8.00;;;;;;;;;;10514665;28;20054;-85
2024/01/25 13:22:52;;;;;;;22.47;6.00;;;;;;;;;;10508715;28;20032;-81
2024/01/25 13:27:53;;;;;;;19.23;6.00;;;;;;;;;;10527362;28;20036;-85
2024/01/25 13:32:55;;;;;;;21.03;6.13;;;;;;;;;;10508861;28;20406;-86
2024/01/25 13:38:00;;;;;;;20.87;5.77;;;;;;;;;;10505374;28;20533;-81
2024/01/25 13:43:01;;;;;;;17.45;5.00;;;;;;;;;;10493497;28;20369;-81
2024/01/25 13:48:02;;;;;;;20.93;7.10;;;;;;;;;;10521977;28;20055;-80
2024/01/25 13:53:03;;;;;;;20.60;5.77;;;;;;;;;;10525806;28;20472;-81
2024/01/25 13:58:05;;;;;;;22.83;6.93;;;;;;;;;;10525948;28;20074;-80
2024/01/25 14:03:06;;;;;;;26.33;7.70;;;;;;;;;;10498292;28;20139;-83
2024/01/25 14:08:13;;;;;;;25.80;8.77;;;;;;;;;;10525140;28;20027;-80
2024/01/25 14:13:21;;;;;;;19.30;6.57;;;;;;;;;;10523173;28;20059;-82
2024/01/25 14:18:22;;;;;;;23.60;5.87;;;;;;;;;;10498175;28;20039;-83
2024/01/25 14:23:23;;;;;;;17.30;7.17;;;;;;;;;;10523368;28;20032;-80
2024/01/25 14:28:30;;;;;;;19.67;4.17;;;;;;;;;;10524909;28;20028;-81
2024/01/25 14:33:38;;;;;;;17.43;4.20;;;;;;;;;;10505842;28;20040;-80
2024/01/25 14:38:39;;;;;;;20.40;5.47;;;;;;;;;;10510087;28;20566;-82
2024/01/25 14:43:40;;;;;;;22.30;5.83;;;;;;;;;;10517736;28;20028;-83
2024/01/25 14:48:41;;;;;;;31.53;9.13;;;;;;;;;;10508598;28;20552;-81
2024/01/25 14:53:42;;;;;;;33.27;9.03;;;;;;;;;;10529422;28;20104;-81
2024/01/25 14:58:43;;;;;;;18.87;6.53;;;;;;;;;;10528626;28;20024;-81
2024/01/25 15:03:45;;;;;;;18.00;5.07;;;;;;;;;;10526713;28;20069;-79
2024/01/25 15:08:46;;;;;;;12.77;3.80;;;;;;;;;;10518593;28;20028;-80
2024/01/25 15:13:48;;;;;;;16.77;4.40;;;;;;;;;;10517799;28;20060;-83
2024/01/25 15:18:49;;;;;;;18.67;5.17;;;;;;;;;;10519948;28;20055;-80
2024/01/25 15:23:50;;;;;;;19.07;5.30;;;;;;;;;;10522519;28;20043;-79
2024/01/25 15:28:51;;;;;;;27.13;9.30;;;;;;;;;;10529464;28;20707;-80
2024/01/25 15:33:52;;;;;;;26.70;7.73;;;;;;;;;;10526048;28;20024;-80
2024/01/25 15:38:54;;;;;;;31.73;11.80;;;;;;;;;;10502992;28;20040;-80
2024/01/25 15:43:55;;;;;;;23.87;7.13;;;;;;;;;;10530581;28;20024;-82
2024/01/25 15:48:56;;;;;;;23.67;7.83;;;;;;;;;;10523651;28;20135;-79
2024/01/25 15:53:57;;;;;;;28.87;8.80;;;;;;;;;;10523655;28;20117;-81
2024/01/25 15:58:58;;;;;;;33.53;16.03;;;;;;;;;;10514564;28;20069;-81
2024/01/25 16:03:59;;;;;;;28.43;12.70;;;;;;;;;;10525428;28;20024;-83
2024/01/25 16:09:03;;;;;;;98.47;37.07;;;;;;;;;;10528326;28;20151;-80
2024/01/25 16:14:04;;;;;;;46.07;15.30;;;;;;;;;;10525102;28;20067;-83
2024/01/25 16:19:08;;;;;;;65.60;21.87;;;;;;;;;;10508455;28;20036;-81
2024/01/25 16:24:09;;;;;;;35.23;11.63;;;;;;;;;;10511135;28;20028;-77
2024/01/25 16:29:10;;;;;;;50.93;15.87;;;;;;;;;;10527400;28;20061;-78
2024/01/25 16:34:14;;;;;;;59.80;24.13;;;;;;;;;;10522564;28;20064;-77
2024/01/25 16:39:15;;;;;;;67.77;24.47;;;;;;;;;;10520651;28;20024;-78
2024/01/25 16:44:16;;;;;;;39.37;12.47;;;;;;;;;;10491151;28;20028;-79
2024/01/25 16:49:17;;;;;;;25.57;9.67;;;;;;;;;;10518918;28;20479;-79
2024/01/25 16:54:18;;;;;;;42.33;14.87;;;;;;;;;;10527381;28;20027;-79
2024/01/25 16:59:19;;;;;;;34.00;12.77;;;;;;;;;;10522267;28;20118;-82
2024/01/25 17:04:20;;;;;;;37.17;13.60;;;;;;;;;;10496839;28;20111;-78
2024/01/25 17:09:22;;;;;;;37.60;14.10;;;;;;;;;;10512537;28;20555;-78
2024/01/25 17:14:23;;;;;;;19.37;7.63;;;;;;;;;;10516858;28;20499;-78
2024/01/25 17:19:24;;;;;;;16.73;4.70;;;;;;;;;;10501617;28;20033;-77
2024/01/25 17:24:25;;;;;;;29.63;11.20;;;;;;;;;;10521570;28;20555;-78
2024/01/25 17:29:26;;;;;;;13.77;4.10;;;;;;;;;;10519400;28;20032;-77
2024/01/25 17:34:27;;;;;;;16.73;4.87;;;;;;;;;;10522565;28;20035;-77
2024/01/25 17:39:28;;;;;;;12.37;4.10;;;;;;;;;;10520663;28;20017;-79
2024/01/25 17:44:29;;;;;;;15.13;4.73;;;;;;;;;;10521229;28;20050;-76
2024/01/25 17:49:30;;;;;;;21.00;5.07;;;;;;;;;;10517708;28;20515;-76
2024/01/25 17:54:31;;;;;;;16.47;4.30;;;;;;;;;;10526397;28;20103;-80
2024/01/25 17:59:32;;;;;;;15.60;5.97;;;;;;;;;;10510998;28;20032;-77
2024/01/25 18:04:34;;;;;;;16.53;5.57;;;;;;;;;;10512442;28;20028;-77
2024/01/25 18:09:35;;;;;;;22.53;6.07;;;;;;;;;;10512571;28;20593;-79
2024/01/25 18:14:36;;;;;;;19.37;6.37;;;;;;;;;;10522646;28;20058;-79
2024/01/25 18:19:37;;;;;;;20.10;5.80;;;;;;;;;;10515592;28;20057;-79
2024/01/25 18:24:38;;;;;;;24.87;8.40;;;;;;;;;;10519522;28;20454;-76
2024/01/25 18:29:40;;;;;;;21.57;7.07;;;;;;;;;;10509745;28;20055;-77
2024/01/25 18:34:41;;;;;;;23.57;7.77;;;;;;;;;;10521706;28;20036;-82
2024/01/25 18:39:42;;;;;;;26.43;8.67;;;;;;;;;;10519382;28;20024;-80
2024/01/25 18:44:43;;;;;;;23.10;7.87;;;;;;;;;;10516691;28;20550;-80
2024/01/25 18:49:44;;;;;;;25.67;9.37;;;;;;;;;;10500760;28;20036;-79
2024/01/25 18:54:46;;;;;;;22.90;7.80;;;;;;;;;;10502021;28;20039;-79
2024/01/25 18:59:47;;;;;;;24.63;7.63;;;;;;;;;;10525262;28;20106;-79
2024/01/25 19:04:49;;;;;;;20.93;6.37;;;;;;;;;;10513377;28;20024;-80
2024/01/25 19:09:52;;;;;;;24.93;6.57;;;;;;;;;;10525409;28;20032;-81
2024/01/25 19:14:53;;;;;;;22.87;5.37;;;;;;;;;;10522365;28;20494;-82
2024/01/25 19:19:54;;;;;;;20.90;6.30;;;;;;;;;;10503266;28;20111;-82
2024/01/25 19:24:55;;;;;;;19.93;5.93;;;;;;;;;;10516946;28;20391;-78
2024/01/25 19:29:59;;;;;;;19.30;5.53;;;;;;;;;;10521983;28;20040;-81
2024/01/25 19:35:00;;;;;;;24.30;5.40;;;;;;;;;;10510923;28;20120;-78
2024/01/25 19:40:01;;;;;;;16.77;4.70;;;;;;;;;;10514667;28;20074;-78
2024/01/25 19:45:03;;;;;;;14.50;3.97;;;;;;;;;;10530476;28;20110;-78
2024/01/25 19:50:04;;;;;;;12.10;3.77;;;;;;;;;;10520061;28;20089;-79
2024/01/25 19:55:06;;;;;;;24.03;5.03;;;;;;;;;;10524093;28;20032;-79
2024/01/25 20:00:08;;;;;;;15.83;3.90;;;;;;;;;;10529204;28;20043;-80
2024/01/25 20:05:10;;;;;;;9.10;3.43;;;;;;;;;;10508228;28;20528;-81
2024/01/25 20:10:11;;;;;;;12.33;3.57;;;;;;;;;;10530491;28;20521;-82
2024/01/25 20:15:19;;;;;;;17.17;4.53;;;;;;;;;;10524095;28;20048;-80
2024/01/25 20:20:27;;;;;;;16.57;4.03;;;;;;;;;;10525928;28;20043;-79
2024/01/25 20:25:28;;;;;;;9.83;3.40;;;;;;;;;;10525590;28;20024;-79
2024/01/25 20:30:33;;;;;;;16.30;3.77;;;;;;;;;;10516580;28;20044;-80
2024/01/25 20:35:34;;;;;;;16.60;4.00;;;;;;;;;;10528731;28;20141;-81
2024/01/25 20:40:35;;;;;;;9.97;3.47;;;;;;;;;;10531141;28;20111;-81
2024/01/25 20:45:36;;;;;;;12.20;2.70;;;;;;;;;;10523235;28;20484;-81
2024/01/25 20:50:37;;;;;;;16.37;3.40;;;;;;;;;;10523616;28;20036;-82
2024/01/25 20:55:38;;;;;;;13.80;3.13;;;;;;;;;;10528485;28;20032;-79
2024/01/25 21:00:39;;;;;;;10.90;2.77;;;;;;;;;;10503109;28;20430;-79
2024/01/25 21:05:41;;;;;;;17.20;3.90;;;;;;;;;;10515898;28;20105;-80
2024/01/25 21:10:42;;;;;;;13.97;3.63;;;;;;;;;;10504648;28;20487;-79
2024/01/25 21:15:43;;;;;;;16.00;3.93;;;;;;;;;;10511156;28;20578;-79
2024/01/25 21:20:44;;;;;;;11.70;3.07;;;;;;;;;;10528405;28;20102;-79
2024/01/25 21:25:45;;;;;;;14.97;4.83;;;;;;;;;;10514553;28;20048;-77
2024/01/25 21:30:47;;;;;;;13.00;3.47;;;;;;;;;;10526832;28;20059;-77
2024/01/25 21:35:48;;;;;;;15.87;3.90;;;;;;;;;;10514949;28;20038;-77
2024/01/25 21:40:49;;;;;;;16.00;4.00;;;;;;;;;;10517497;28;20050;-79
2024/01/25 21:45:50;;;;;;;11.90;4.40;;;;;;;;;;10526253;28;20039;-79
2024/01/25 21:50:51;;;;;;;11.40;4.47;;;;;;;;;;10527351;28;20074;-78
2024/01/25 21:55:52;;;;;;;15.90;4.53;;;;;;;;;;10519395;28;20089;-80
2024/01/25 22:00:53;;;;;;;16.27;4.47;;;;;;;;;;10525603;28;20046;-81
2024/01/25 22:05:54;;;;;;;14.17;3.87;;;;;;;;;;10501804;28;20048;-80
2024/01/25 22:10:55;;;;;;;14.20;3.97;;;;;;;;;;10510368;28;20414;-81
2024/01/25 22:15:56;;;;;;;18.53;5.00;;;;;;;;;;10517218;28;20066;-80
2024/01/25 22:20:57;;;;;;;16.53;5.20;;;;;;;;;;10499765;28;20039;-80
2024/01/25 22:25:58;;;;;;;14.10;3.97;;;;;;;;;;10519116;28;20035;-80
2024/01/25 22:30:59;;;;;;;16.10;5.93;;;;;;;;;;10521918;28;20040;-80
2024/01/25 22:36:00;;;;;;;19.10;4.87;;;;;;;;;;10470011;22;20085;-79
2024/01/25 22:41:01;;;;;;;15.43;4.13;;;;;;;;;;10430465;28;20025;-79
2024/01/25 22:46:02;;;;;;;14.73;3.50;;;;;;;;;;10439822;22;20052;-79
2024/01/25 22:51:03;;;;;;;17.00;4.27;;;;;;;;;;10448146;28;20033;-80
2024/01/25 22:56:05;;;;;;;9.83;3.27;;;;;;;;;;10442919;28;20061;-82
2024/01/25 23:01:06;;;;;;;7.37;3.07;;;;;;;;;;10445459;28;20036;-79
2024/01/25 23:06:07;;;;;;;12.13;2.90;;;;;;;;;;10441317;28;20112;-81
2024/01/25 23:11:09;;;;;;;12.20;3.07;;;;;;;;;;10448764;28;20049;-79
2024/01/25 23:16:10;;;;;;;10.20;3.23;;;;;;;;;;10454999;28;20047;-80
2024/01/25 23:21:11;;;;;;;14.73;3.33;;;;;;;;;;10451666;28;20033;-80
2024/01/25 23:26:12;;;;;;;14.80;3.77;;;;;;;;;;10437036;28;20483;-81
2024/01/25 23:31:18;;;;;;;19.73;3.77;;;;;;;;;;10470629;22;20044;-81
2024/01/25 23:36:19;;;;;;;8.85;2.58;;;;;;;;;;10485989;28;20029;-79
2024/01/25 23:41:20;;;;;;;18.40;3.87;;;;;;;;;;10484394;28;20020;-79
2024/01/25 23:46:21;;;;;;;16.10;4.43;;;;;;;;;;10450683;28;20057;-79
2024/01/25 23:51:22;;;;;;;13.53;3.97;;;;;;;;;;10472807;28;20468;-78
2024/01/25 23:56:23;;;;;;;14.43;3.23;;;;;;;;;;10465374;28;20033;-79
